Violet Hill, Arkansas
Current Conditions -  °F | °C
As of 4:55 AM on Sunday 23 Nov 2014 (Local Time) from KBVX Reporting Station
Overcast Overcast  
Wind Chill: 55°   Ceiling: 1300
Heat Index: 55°   Visibility: 9mi
Dew Point: 52°   Wind: 8mph
Humidity: 88%   Direction: 110°ESE
Pressure: 29.72"   Gusts: NA
Location:  36.15°N, 91.84°W
Report Text: KBVX 231055Z AUTO 11007KT 9SM OVC013 13/11 A2972 RMK AO1
Loading
Personal Weather Stations






























Interactive Weather Map New forecast layout! Learn more

10-Day Weather Forecast

Advertisements
Track Severe Weather on mobile